Ana Sayfa
METAR-TAF:

METAR-TAF

Havaalanları :

Starkville, Mississipi, Amerika Birleşik Devletleri

Enlem: 33-25-59N, Boylam: 088-50-55W, yükseklik: 101 m

Güncel hava durumu gözlemi

Rapor saat 21:35 UTC de 10 dakika önce yapıldı.
Rüzgar doğu/güneydoğudan 7 kt
Sıcaklık 31°C
Nem 52%
Basınç 1022 hPa
Görüş mesafesi: 16.1 km
6500 ft yükseklikte parçalı çok bulutlu
8000 ft yükseklikte parçalı çok bulutlu

METAR: KSTF 202135Z AUTO 11007KT 10SM BKN065 BKN080 31/20 A3018 RMK AO2

Saat: 16:45 (21:45 UTC)


TAF: eksik

4.000'den fazla havaalanı için hava durumu gözlemleri ve tahminleri (METAR ve TAF raporları).

Kullanılabilir istasyonlar harita üzerinde sarı ve kırmızı noktalarla gösterilir.

İstasyonun adını görmek için fareyi noktanın üzerinde gezdirin.

Sonrasında hava gözlem ve tahminlerini görmek için tıklayın.

Haritayı değiştirmek için: yaklaştırmak için siyah artı işaretli yeşil düğmeye ve uzaklaştırmak için de eksi işaretli düğmeye hızla tıklayın; bitişik haritalar için yeşil okları kullanın.


METAR-TAF: